Time;durP1;ratioP1;P1;durP2;ratioP2;P2;SDS_P1;SDS_P2;PMS_P1;PMS_P2;Temp;Humidity;BMP_temperature;BMP_pressure;BME280_temperature;BME280_humidity;BME280_pressure;Samples;Min_cycle;Max_cycle;Signal;HPM_P1;HPM_P2
2022/05/05 00:01:49;;;;;;;6.78;5.13;;;;;;;;;;5053186;28;20513;-76
2022/05/05 00:04:14;;;;;;;7.43;5.33;;;;;;;;;;5052847;28;20025;-76
2022/05/05 00:06:39;;;;;;;6.32;4.93;;;;;;;;;;5052726;28;20253;-76
2022/05/05 00:09:05;;;;;;;11.10;5.00;;;;;;;;;;5052961;28;20052;-76
2022/05/05 00:14:31;;;;;;;6.95;5.00;;;;;;;;;;5052683;28;20405;-76
2022/05/05 00:17:03;;;;;;;6.35;4.68;;;;;;;;;;5052998;28;20037;-75
2022/05/05 00:19:30;;;;;;;6.53;4.55;;;;;;;;;;5052588;28;20025;-76
2022/05/05 00:21:56;;;;;;;10.38;5.07;;;;;;;;;;5052649;28;20024;-75
2022/05/05 00:24:22;;;;;;;6.57;4.95;;;;;;;;;;5051239;28;20556;-75
2022/05/05 00:26:47;;;;;;;7.78;5.40;;;;;;;;;;5052461;28;20060;-75
2022/05/05 00:29:13;;;;;;;6.05;4.50;;;;;;;;;;5052908;28;20028;-76
2022/05/05 00:31:39;;;;;;;8.70;5.00;;;;;;;;;;5051139;28;20363;-75
2022/05/05 00:34:04;;;;;;;9.18;5.07;;;;;;;;;;5052403;28;20028;-75
2022/05/05 00:36:29;;;;;;;7.05;4.78;;;;;;;;;;5052537;28;20090;-75
2022/05/05 00:38:54;;;;;;;6.65;4.88;;;;;;;;;;5052464;28;20039;-75
2022/05/05 00:41:20;;;;;;;5.70;4.70;;;;;;;;;;5052607;28;20024;-76
2022/05/05 00:43:45;;;;;;;6.15;4.95;;;;;;;;;;5052835;28;20254;-76
2022/05/05 00:46:10;;;;;;;7.35;5.05;;;;;;;;;;5056164;28;20021;-76
2022/05/05 00:48:36;;;;;;;8.30;5.60;;;;;;;;;;5056240;28;20481;-76
2022/05/05 00:51:01;;;;;;;9.35;5.32;;;;;;;;;;5056019;28;20812;-76
2022/05/05 00:53:27;;;;;;;8.88;5.20;;;;;;;;;;5056526;28;20035;-76
2022/05/05 00:55:55;;;;;;;7.47;5.10;;;;;;;;;;5055951;28;20442;-75
2022/05/05 00:58:22;;;;;;;11.82;5.55;;;;;;;;;;5055919;28;20021;-76
2022/05/05 01:00:48;;;;;;;6.10;5.00;;;;;;;;;;5055813;28;20054;-75
2022/05/05 01:03:15;;;;;;;7.28;5.30;;;;;;;;;;5054577;28;20124;-75
2022/05/05 01:05:40;;;;;;;7.55;5.05;;;;;;;;;;5055621;28;20581;-76
2022/05/05 01:08:06;;;;;;;7.28;5.22;;;;;;;;;;5055671;28;20108;-76
2022/05/05 01:10:32;;;;;;;10.18;4.88;;;;;;;;;;5055585;28;20039;-75
2022/05/05 01:13:01;;;;;;;9.45;5.57;;;;;;;;;;5055832;28;20032;-76
2022/05/05 01:15:28;;;;;;;8.90;4.93;;;;;;;;;;5055498;28;20490;-75
2022/05/05 01:17:53;;;;;;;9.73;5.45;;;;;;;;;;5054152;28;20025;-76
2022/05/05 01:20:19;;;;;;;9.60;5.43;;;;;;;;;;5054114;28;20040;-75
2022/05/05 01:22:45;;;;;;;7.57;5.13;;;;;;;;;;5055394;28;20692;-75
2022/05/05 01:28:13;;;;;;;12.35;5.32;;;;;;;;;;5055717;28;20032;-76
2022/05/05 01:30:44;;;;;;;11.82;5.32;;;;;;;;;;5053899;28;20036;-75
2022/05/05 01:33:19;;;;;;;8.23;5.18;;;;;;;;;;5053947;28;20033;-76
2022/05/05 01:35:47;;;;;;;7.32;5.30;;;;;;;;;;5053861;28;20037;-75
2022/05/05 01:38:18;;;;;;;8.07;5.10;;;;;;;;;;5055031;28;20033;-75
2022/05/05 01:40:46;;;;;;;6.47;5.20;;;;;;;;;;5053831;28;20035;-75
2022/05/05 01:43:12;;;;;;;14.40;5.45;;;;;;;;;;5055306;28;20052;-76
2022/05/05 01:45:38;;;;;;;7.13;5.35;;;;;;;;;;5055213;28;20032;-75
2022/05/05 01:48:03;;;;;;;7.80;5.70;;;;;;;;;;5054909;28;20029;-75
2022/05/05 01:50:31;;;;;;;7.97;5.60;;;;;;;;;;5054741;28;20404;-76
2022/05/05 01:52:56;;;;;;;7.97;5.80;;;;;;;;;;5054708;28;20490;-76
2022/05/05 01:55:21;;;;;;;14.05;5.88;;;;;;;;;;5055051;28;20060;-76
2022/05/05 01:57:47;;;;;;;6.57;5.30;;;;;;;;;;5052126;28;20060;-76
2022/05/05 02:00:13;;;;;;;8.05;5.68;;;;;;;;;;5053538;28;20433;-75
2022/05/05 02:02:38;;;;;;;9.32;5.43;;;;;;;;;;5053271;28;20040;-76
2022/05/05 02:05:04;;;;;;;7.47;5.63;;;;;;;;;;5054566;28;20029;-76
2022/05/05 02:07:29;;;;;;;8.25;5.38;;;;;;;;;;5055072;28;20442;-76
2022/05/05 02:09:54;;;;;;;7.70;5.07;;;;;;;;;;5054717;28;20025;-76
2022/05/05 02:12:19;;;;;;;7.63;5.28;;;;;;;;;;5054487;28;20067;-76
2022/05/05 02:14:45;;;;;;;9.02;5.45;;;;;;;;;;5054193;28;20078;-76
2022/05/05 02:17:10;;;;;;;8.93;5.60;;;;;;;;;;5054721;28;20078;-76
2022/05/05 02:19:36;;;;;;;9.63;5.45;;;;;;;;;;5054262;28;20063;-76
2022/05/05 02:22:02;;;;;;;7.47;5.57;;;;;;;;;;5052964;28;20100;-76
2022/05/05 02:24:27;;;;;;;7.35;5.30;;;;;;;;;;5054228;28;20265;-76
2022/05/05 02:26:52;;;;;;;7.70;5.45;;;;;;;;;;5052867;28;20016;-76
2022/05/05 02:29:18;;;;;;;7.83;5.40;;;;;;;;;;5054093;28;20123;-76
2022/05/05 02:31:43;;;;;;;12.43;5.60;;;;;;;;;;5053971;28;20364;-76
2022/05/05 02:34:08;;;;;;;8.60;5.20;;;;;;;;;;5054001;28;20338;-76
2022/05/05 02:39:22;;;;;;;10.25;5.85;;;;;;;;;;5053927;28;20394;-76
2022/05/05 02:41:48;;;;;;;7.60;5.45;;;;;;;;;;5052587;28;20094;-77
2022/05/05 02:44:13;;;;;;;8.68;5.07;;;;;;;;;;5052575;28;20490;-76
2022/05/05 02:46:38;;;;;;;6.57;5.43;;;;;;;;;;5053878;28;20028;-76
2022/05/05 02:49:03;;;;;;;6.53;5.30;;;;;;;;;;5053732;28;20253;-76
2022/05/05 02:51:29;;;;;;;9.03;5.90;;;;;;;;;;5053703;28;20273;-76
2022/05/05 02:56:38;;;;;;;8.80;6.05;;;;;;;;;;5053963;28;20611;-77
2022/05/05 02:59:03;;;;;;;9.27;5.57;;;;;;;;;;5052317;28;20123;-77
2022/05/05 03:01:28;;;;;;;6.50;5.60;;;;;;;;;;5052212;28;20047;-76
2022/05/05 03:03:53;;;;;;;8.77;5.63;;;;;;;;;;5053817;28;20111;-76
2022/05/05 03:06:19;;;;;;;7.17;5.27;;;;;;;;;;5053515;28;20265;-76
2022/05/05 03:08:45;;;;;;;8.13;6.28;;;;;;;;;;5052637;28;20261;-77
2022/05/05 03:11:10;;;;;;;10.13;5.87;;;;;;;;;;5053290;28;20438;-76
2022/05/05 03:13:36;;;;;;;10.55;5.70;;;;;;;;;;5053205;28;20735;-76
2022/05/05 03:16:02;;;;;;;8.15;6.30;;;;;;;;;;5053648;28;20028;-76
2022/05/05 03:18:28;;;;;;;9.23;6.20;;;;;;;;;;5053426;28;20029;-77
2022/05/05 03:20:53;;;;;;;10.45;6.40;;;;;;;;;;5053468;28;20031;-76
2022/05/05 03:23:18;;;;;;;9.60;6.20;;;;;;;;;;5053720;28;20456;-77
2022/05/05 03:25:43;;;;;;;9.17;6.20;;;;;;;;;;5053402;28;20025;-75
2022/05/05 03:28:09;;;;;;;7.03;5.67;;;;;;;;;;5053338;28;20332;-77
2022/05/05 03:30:34;;;;;;;10.03;5.93;;;;;;;;;;5053312;28;20265;-76
2022/05/05 03:32:59;;;;;;;8.60;6.10;;;;;;;;;;5053361;28;20332;-76
2022/05/05 03:35:25;;;;;;;10.88;6.22;;;;;;;;;;5053455;28;20021;-76
2022/05/05 03:37:50;;;;;;;12.20;6.60;;;;;;;;;;5053671;28;20032;-76
2022/05/05 03:40:15;;;;;;;14.07;6.43;;;;;;;;;;5053356;28;20349;-76
2022/05/05 03:42:40;;;;;;;12.88;6.38;;;;;;;;;;5053413;28;20024;-76
2022/05/05 03:45:06;;;;;;;11.07;6.10;;;;;;;;;;5053705;28;20029;-76
2022/05/05 03:47:31;;;;;;;8.88;6.47;;;;;;;;;;5053697;28;20257;-75
2022/05/05 03:49:56;;;;;;;15.23;5.82;;;;;;;;;;5052862;28;20036;-76
2022/05/05 03:52:22;;;;;;;9.77;5.80;;;;;;;;;;5053550;28;20066;-76
2022/05/05 03:54:47;;;;;;;8.30;5.83;;;;;;;;;;5051840;28;20400;-76
2022/05/05 03:57:12;;;;;;;12.13;6.10;;;;;;;;;;5053363;28;20265;-76
2022/05/05 03:59:37;;;;;;;8.52;5.72;;;;;;;;;;5053087;28;20266;-75
2022/05/05 04:02:03;;;;;;;8.67;5.83;;;;;;;;;;5053373;28;20025;-76
2022/05/05 04:04:28;;;;;;;8.98;6.50;;;;;;;;;;5053127;28;20739;-76
2022/05/05 04:06:53;;;;;;;10.13;6.43;;;;;;;;;;5053270;28;20086;-76
2022/05/05 04:09:18;;;;;;;9.53;6.40;;;;;;;;;;5052870;28;20250;-75
2022/05/05 04:11:44;;;;;;;7.93;5.90;;;;;;;;;;5052645;28;20327;-75
2022/05/05 04:14:09;;;;;;;9.30;6.13;;;;;;;;;;5052871;28;20269;-77
2022/05/05 04:16:34;;;;;;;9.18;6.35;;;;;;;;;;5052927;28;20258;-76
2022/05/05 04:19:04;;;;;;;11.70;6.50;;;;;;;;;;5051625;28;20112;-76
2022/05/05 04:21:30;;;;;;;7.50;5.82;;;;;;;;;;5056607;28;20044;-77
2022/05/05 04:23:55;;;;;;;11.50;6.25;;;;;;;;;;5057306;28;20044;-76
2022/05/05 04:26:21;;;;;;;8.50;6.63;;;;;;;;;;5055475;28;20025;-76
2022/05/05 04:28:48;;;;;;;9.63;6.32;;;;;;;;;;5057094;28;20284;-76
2022/05/05 04:31:15;;;;;;;17.70;6.75;;;;;;;;;;5055085;28;20078;-76
2022/05/05 04:33:40;;;;;;;11.13;6.20;;;;;;;;;;5055535;28;20064;-76
2022/05/05 04:36:07;;;;;;;15.98;5.85;;;;;;;;;;5055417;28;20531;-77
2022/05/05 04:38:33;;;;;;;10.90;6.80;;;;;;;;;;5056866;28;20048;-76
2022/05/05 04:40:58;;;;;;;8.73;6.28;;;;;;;;;;5056420;28;20119;-76
2022/05/05 04:43:23;;;;;;;9.93;6.50;;;;;;;;;;5057069;28;20037;-76
2022/05/05 04:45:49;;;;;;;11.37;6.47;;;;;;;;;;5056548;28;20270;-76
2022/05/05 04:48:14;;;;;;;12.95;6.47;;;;;;;;;;5056361;28;20269;-77
2022/05/05 04:50:39;;;;;;;10.70;6.68;;;;;;;;;;5055833;28;20049;-76
2022/05/05 04:53:05;;;;;;;9.50;6.80;;;;;;;;;;5054641;28;20474;-76
2022/05/05 04:55:30;;;;;;;10.07;6.15;;;;;;;;;;5055862;28;20628;-76
2022/05/05 04:57:55;;;;;;;9.33;6.83;;;;;;;;;;5056161;28;20025;-75
2022/05/05 05:00:22;;;;;;;10.10;6.37;;;;;;;;;;5055754;28;20257;-76
2022/05/05 05:02:47;;;;;;;8.65;6.38;;;;;;;;;;5054570;28;20258;-76
2022/05/05 05:05:12;;;;;;;11.03;6.43;;;;;;;;;;5055635;28;20031;-76
2022/05/05 05:07:38;;;;;;;9.97;6.70;;;;;;;;;;5055669;28;20300;-75
2022/05/05 05:10:03;;;;;;;10.65;6.40;;;;;;;;;;5055551;28;20270;-75
2022/05/05 05:12:29;;;;;;;9.70;6.68;;;;;;;;;;5055862;28;20036;-76
2022/05/05 05:14:54;;;;;;;10.50;6.23;;;;;;;;;;5055502;28;20044;-75
2022/05/05 05:17:19;;;;;;;10.57;6.63;;;;;;;;;;5054151;28;20275;-75
2022/05/05 05:19:44;;;;;;;7.10;6.10;;;;;;;;;;5055377;28;20266;-75
2022/05/05 05:22:10;;;;;;;10.45;6.85;;;;;;;;;;5055947;28;20311;-75
2022/05/05 05:24:35;;;;;;;9.68;7.00;;;;;;;;;;5054048;28;20025;-74
2022/05/05 05:27:00;;;;;;;12.90;6.57;;;;;;;;;;5055181;28;20411;-75
2022/05/05 05:29:25;;;;;;;12.97;6.77;;;;;;;;;;5055114;28;20627;-75
2022/05/05 05:31:50;;;;;;;11.50;6.53;;;;;;;;;;5054083;28;20409;-75
2022/05/05 05:34:16;;;;;;;10.33;6.57;;;;;;;;;;5055434;28;20253;-76
2022/05/05 05:36:41;;;;;;;10.33;6.63;;;;;;;;;;5055378;28;20262;-75
2022/05/05 05:39:06;;;;;;;9.43;6.53;;;;;;;;;;5055058;28;20337;-75
2022/05/05 05:41:31;;;;;;;11.60;6.97;;;;;;;;;;5054987;28;20277;-76
2022/05/05 05:43:57;;;;;;;9.97;6.90;;;;;;;;;;5054814;28;20262;-75
2022/05/05 05:46:22;;;;;;;9.45;7.43;;;;;;;;;;5054809;28;20250;-75
2022/05/05 05:48:47;;;;;;;8.63;7.07;;;;;;;;;;5054903;28;20108;-75
2022/05/05 05:51:13;;;;;;;12.57;7.30;;;;;;;;;;5054568;28;20372;-75
2022/05/05 05:53:38;;;;;;;14.00;7.40;;;;;;;;;;5055193;28;20104;-77
2022/05/05 05:56:04;;;;;;;9.93;7.00;;;;;;;;;;5055402;28;20025;-76
2022/05/05 05:58:29;;;;;;;15.37;7.87;;;;;;;;;;5054698;28;20032;-76
2022/05/05 06:00:54;;;;;;;12.83;7.50;;;;;;;;;;5054711;28;20262;-76
2022/05/05 06:06:03;;;;;;;21.75;11.50;;;;;;;;;;5054861;28;20036;-76
2022/05/05 06:08:29;;;;;;;18.80;11.65;;;;;;;;;;5054320;28;20401;-75
2022/05/05 06:10:54;;;;;;;20.17;11.73;;;;;;;;;;5054281;28;20470;-76
2022/05/05 06:13:19;;;;;;;16.73;12.40;;;;;;;;;;5054040;28;20066;-75
2022/05/05 06:15:44;;;;;;;23.48;12.98;;;;;;;;;;5053103;28;20293;-76
2022/05/05 06:18:09;;;;;;;21.10;12.07;;;;;;;;;;5054323;28;20033;-76
2022/05/05 06:20:35;;;;;;;17.93;12.63;;;;;;;;;;5054141;28;20320;-75
2022/05/05 06:23:00;;;;;;;19.67;13.80;;;;;;;;;;5054002;28;20254;-75
2022/05/05 06:25:26;;;;;;;18.38;13.65;;;;;;;;;;5052716;28;20757;-75
2022/05/05 06:27:51;;;;;;;21.65;13.30;;;;;;;;;;5054234;28;20107;-76
2022/05/05 06:30:17;;;;;;;16.95;12.65;;;;;;;;;;5053844;28;20112;-75
2022/05/05 06:32:44;;;;;;;21.70;13.13;;;;;;;;;;5054360;28;20394;-75
2022/05/05 06:35:11;;;;;;;17.10;12.07;;;;;;;;;;5053804;28;20029;-75
2022/05/05 06:37:36;;;;;;;19.33;12.75;;;;;;;;;;5052680;28;20444;-75
2022/05/05 06:40:03;;;;;;;15.77;13.50;;;;;;;;;;5052699;28;20028;-76
2022/05/05 06:42:28;;;;;;;17.10;13.10;;;;;;;;;;5052385;28;20070;-75
2022/05/05 06:44:54;;;;;;;19.15;13.15;;;;;;;;;;5053938;28;20100;-75
2022/05/05 06:47:19;;;;;;;18.00;13.73;;;;;;;;;;5052826;28;20494;-75
2022/05/05 06:49:45;;;;;;;19.00;13.43;;;;;;;;;;5052248;28;20025;-75
2022/05/05 06:52:10;;;;;;;19.55;13.38;;;;;;;;;;5053580;28;20021;-76
2022/05/05 06:54:35;;;;;;;19.80;13.00;;;;;;;;;;5052372;28;20028;-76
2022/05/05 06:57:00;;;;;;;19.42;13.18;;;;;;;;;;5053487;28;20529;-76
2022/05/05 06:59:26;;;;;;;18.43;13.40;;;;;;;;;;5053317;28;20028;-75
2022/05/05 07:02:01;;;;;;;18.02;13.30;;;;;;;;;;5052840;28;20250;-75
2022/05/05 07:07:14;;;;;;;17.90;12.00;;;;;;;;;;5053833;28;20428;-76
2022/05/05 07:12:24;;;;;;;18.90;11.45;;;;;;;;;;5053258;28;20048;-76
2022/05/05 07:14:49;;;;;;;20.00;10.93;;;;;;;;;;5053230;28;20486;-76
2022/05/05 07:17:14;;;;;;;15.30;11.38;;;;;;;;;;5053139;28;20262;-75
2022/05/05 07:19:40;;;;;;;15.23;10.90;;;;;;;;;;5051704;28;20029;-76
2022/05/05 07:22:06;;;;;;;14.32;10.73;;;;;;;;;;5053148;28;20316;-76
2022/05/05 07:24:31;;;;;;;14.65;10.75;;;;;;;;;;5053394;28;20029;-77
2022/05/05 07:26:57;;;;;;;15.48;10.32;;;;;;;;;;5051720;28;20021;-76
2022/05/05 07:29:22;;;;;;;15.60;10.45;;;;;;;;;;5053434;28;20474;-75
2022/05/05 07:31:48;;;;;;;16.38;10.70;;;;;;;;;;5052991;28;20029;-75
2022/05/05 07:34:13;;;;;;;14.55;9.02;;;;;;;;;;5053020;28;20103;-76
2022/05/05 07:36:39;;;;;;;16.50;10.73;;;;;;;;;;5052990;28;20028;-76
2022/05/05 07:39:04;;;;;;;14.23;10.77;;;;;;;;;;5053394;28;20514;-74
2022/05/05 07:41:30;;;;;;;19.63;11.02;;;;;;;;;;5052756;28;20029;-75
2022/05/05 07:43:55;;;;;;;19.02;11.18;;;;;;;;;;5052923;28;20025;-76
2022/05/05 07:46:20;;;;;;;16.73;10.80;;;;;;;;;;5052809;28;20029;-76
2022/05/05 07:48:46;;;;;;;17.67;10.13;;;;;;;;;;5051547;28;20632;-76
2022/05/05 07:51:11;;;;;;;13.60;9.57;;;;;;;;;;5052966;28;20056;-76
2022/05/05 07:53:37;;;;;;;14.88;10.18;;;;;;;;;;5051427;28;20500;-76
2022/05/05 07:56:02;;;;;;;15.33;9.47;;;;;;;;;;5056678;28;20025;-75
2022/05/05 07:58:28;;;;;;;19.25;9.88;;;;;;;;;;5056804;28;20256;-76
2022/05/05 08:00:53;;;;;;;17.38;9.73;;;;;;;;;;5056684;28;20074;-75
2022/05/05 08:03:18;;;;;;;12.43;9.18;;;;;;;;;;5056691;28;20060;-75
2022/05/05 08:05:44;;;;;;;18.15;9.90;;;;;;;;;;5055615;28;20029;-76
2022/05/05 08:08:09;;;;;;;16.67;9.80;;;;;;;;;;5056676;28;20386;-76
2022/05/05 08:10:35;;;;;;;14.15;9.80;;;;;;;;;;5056923;28;20029;-76
2022/05/05 08:13:00;;;;;;;16.53;9.30;;;;;;;;;;5056502;28;20112;-75
2022/05/05 08:15:25;;;;;;;18.40;9.47;;;;;;;;;;5056480;28;20269;-75
2022/05/05 08:17:50;;;;;;;14.10;9.63;;;;;;;;;;5055310;28;20754;-76
2022/05/05 08:20:16;;;;;;;14.50;9.23;;;;;;;;;;5055098;28;20398;-76
2022/05/05 08:22:41;;;;;;;15.82;10.10;;;;;;;;;;5056303;28;20611;-75
2022/05/05 08:30:35;;;;;;;14.32;9.32;;;;;;;;;;5056134;28;20102;-76
2022/05/05 08:33:01;;;;;;;15.75;10.43;;;;;;;;;;5055959;28;20478;-76
2022/05/05 08:35:27;;;;;;;21.00;10.50;;;;;;;;;;5056044;28;20025;-75
2022/05/05 08:37:53;;;;;;;15.25;9.50;;;;;;;;;;5056272;28;20311;-76
2022/05/05 08:40:22;;;;;;;11.75;9.73;;;;;;;;;;5055960;28;20478;-80
2022/05/05 08:42:47;;;;;;;17.35;9.77;;;;;;;;;;5056039;28;20021;-76
2022/05/05 08:45:13;;;;;;;17.47;9.63;;;;;;;;;;5056429;28;20116;-76
2022/05/05 08:47:40;;;;;;;18.37;9.30;;;;;;;;;;5055941;28;20285;-76
2022/05/05 08:50:08;;;;;;;20.98;10.52;;;;;;;;;;5055932;28;20284;-77
2022/05/05 08:52:48;;;;;;;12.30;9.40;;;;;;;;;;5056004;28;20071;-77
2022/05/05 08:55:18;;;;;;;13.15;10.10;;;;;;;;;;5056445;28;20100;-76
2022/05/05 08:57:44;;;;;;;13.52;9.15;;;;;;;;;;5055786;28;20025;-76
2022/05/05 09:00:13;;;;;;;14.85;8.68;;;;;;;;;;5056093;28;20032;-76
2022/05/05 09:02:38;;;;;;;17.63;9.30;;;;;;;;;;5057346;28;20078;-76
2022/05/05 09:05:04;;;;;;;13.00;9.00;;;;;;;;;;5056044;28;20025;-76
2022/05/05 09:07:50;;;;;;;12.45;8.82;;;;;;;;;;5054543;28;20029;-75
2022/05/05 09:10:20;;;;;;;13.05;8.75;;;;;;;;;;5056106;28;20443;-76
2022/05/05 09:13:00;;;;;;;12.85;8.75;;;;;;;;;;5054293;28;20025;-74
2022/05/05 09:15:33;;;;;;;15.05;8.60;;;;;;;;;;5054406;28;20075;-74
2022/05/05 09:18:17;;;;;;;13.10;8.13;;;;;;;;;;5055866;28;20490;-75
2022/05/05 09:20:44;;;;;;;16.90;8.82;;;;;;;;;;5056382;28;20047;-73
2022/05/05 09:23:25;;;;;;;13.15;8.65;;;;;;;;;;5055254;28;20028;-72
2022/05/05 09:25:51;;;;;;;13.35;8.43;;;;;;;;;;5054343;28;20033;-73
2022/05/05 09:28:22;;;;;;;11.25;8.32;;;;;;;;;;5055221;28;20031;-72
2022/05/05 09:30:48;;;;;;;14.18;9.48;;;;;;;;;;5055665;28;20024;-77
2022/05/05 09:33:15;;;;;;;13.65;8.30;;;;;;;;;;5055071;28;20021;-77
2022/05/05 09:35:40;;;;;;;11.85;8.20;;;;;;;;;;5056828;28;20080;-80
2022/05/05 09:38:06;;;;;;;12.82;8.10;;;;;;;;;;5056045;28;20025;-77
2022/05/05 09:40:31;;;;;;;11.13;8.30;;;;;;;;;;5054158;28;20052;-76
2022/05/05 09:42:56;;;;;;;12.35;8.57;;;;;;;;;;5054873;28;20262;-76
2022/05/05 09:45:30;;;;;;;12.73;8.25;;;;;;;;;;5055282;28;20056;-76
2022/05/05 09:47:58;;;;;;;12.38;8.68;;;;;;;;;;5055075;28;20032;-77
2022/05/05 09:50:26;;;;;;;12.80;8.90;;;;;;;;;;5054853;28;20025;-77
2022/05/05 09:58:26;;;;;;;10.48;7.45;;;;;;;;;;5055040;28;20086;-77
2022/05/05 10:01:04;;;;;;;16.67;7.80;;;;;;;;;;5054779;28;20025;-76
2022/05/05 10:04:05;;;;;;;13.65;8.20;;;;;;;;;;5054704;28;20416;-77
2022/05/05 10:06:42;;;;;;;11.98;7.78;;;;;;;;;;5054586;28;20094;-76
2022/05/05 10:09:14;;;;;;;9.98;6.30;;;;;;;;;;5054371;28;20051;-75
2022/05/05 10:11:41;;;;;;;13.13;6.50;;;;;;;;;;5054922;28;20025;-76
2022/05/05 10:14:08;;;;;;;10.77;6.38;;;;;;;;;;5054302;28;20036;-77
2022/05/05 10:16:35;;;;;;;10.35;5.95;;;;;;;;;;5054232;28;20104;-77
2022/05/05 10:19:03;;;;;;;9.60;6.32;;;;;;;;;;5053849;28;20508;-77
2022/05/05 10:21:54;;;;;;;7.97;5.57;;;;;;;;;;5052764;28;20111;-76
2022/05/05 10:24:22;;;;;;;9.77;5.65;;;;;;;;;;5054256;28;20032;-77
2022/05/05 10:26:49;;;;;;;10.30;5.75;;;;;;;;;;5054173;28;20029;-77
2022/05/05 10:29:33;;;;;;;8.10;5.57;;;;;;;;;;5052773;28;20025;-76
2022/05/05 10:32:16;;;;;;;;;;;;;;;;;;5054336;28;20400;-76
2022/05/05 10:34:45;;;;;;;8.32;5.18;;;;;;;;;;5054629;28;20365;-77
2022/05/05 10:37:12;;;;;;;8.07;5.60;;;;;;;;;;5053982;28;20119;-77
2022/05/05 10:39:42;;;;;;;9.35;5.05;;;;;;;;;;5054032;28;20021;-77
2022/05/05 10:42:15;;;;;;;7.40;4.85;;;;;;;;;;5054079;28;20025;-77
2022/05/05 10:45:04;;;;;;;8.05;5.13;;;;;;;;;;5054260;28;20025;-76
2022/05/05 10:48:06;;;;;;;5.75;4.20;;;;;;;;;;5053859;28;20033;-75
2022/05/05 10:50:57;;;;;;;8.07;4.72;;;;;;;;;;5053864;28;20017;-76
2022/05/05 10:53:39;;;;;;;12.85;4.70;;;;;;;;;;5053681;28;20037;-77
2022/05/05 10:56:26;;;;;;;8.10;4.65;;;;;;;;;;5052278;28;20029;-77
2022/05/05 10:58:59;;;;;;;7.63;4.20;;;;;;;;;;5053679;28;20051;-76
2022/05/05 11:01:25;;;;;;;8.10;4.45;;;;;;;;;;5052119;28;20537;-76
2022/05/05 11:04:25;;;;;;;6.55;4.15;;;;;;;;;;5052056;28;20120;-76
2022/05/05 11:07:30;;;;;;;7.40;3.92;;;;;;;;;;5053343;28;20489;-76
2022/05/05 11:09:56;;;;;;;9.90;4.38;;;;;;;;;;5031371;28;20398;-76
2022/05/05 11:12:23;;;;;;;5.97;4.22;;;;;;;;;;5049617;28;20128;-76
2022/05/05 11:23:24;;;;;;;7.13;3.70;;;;;;;;;;5053333;28;20504;-76
2022/05/05 11:25:50;;;;;;;5.97;4.28;;;;;;;;;;5053143;28;20021;-76
2022/05/05 11:28:17;;;;;;;7.75;3.83;;;;;;;;;;5053167;28;20402;-77
2022/05/05 11:30:43;;;;;;;5.78;4.05;;;;;;;;;;5050873;28;20021;-76
2022/05/05 11:33:09;;;;;;;5.28;3.75;;;;;;;;;;5053389;28;20024;-76
2022/05/05 11:35:34;;;;;;;9.13;4.10;;;;;;;;;;5053252;28;20052;-76
2022/05/05 11:37:59;;;;;;;7.07;4.30;;;;;;;;;;5053068;28;20032;-76
2022/05/05 11:40:25;;;;;;;9.50;4.15;;;;;;;;;;5052933;28;20107;-77
2022/05/05 11:45:35;;;;;;;13.52;3.70;;;;;;;;;;5052968;28;20105;-76
2022/05/05 11:48:14;;;;;;;5.78;3.97;;;;;;;;;;5051512;28;20498;-76
2022/05/05 11:50:44;;;;;;;6.60;3.92;;;;;;;;;;5053118;28;20028;-76
2022/05/05 11:53:17;;;;;;;5.75;4.00;;;;;;;;;;5052387;28;20104;-77
2022/05/05 11:55:46;;;;;;;9.65;3.58;;;;;;;;;;5053090;28;20028;-76
2022/05/05 11:58:16;;;;;;;5.30;3.67;;;;;;;;;;5053072;28;20032;-77
2022/05/05 12:03:25;;;;;;;7.22;3.50;;;;;;;;;;5053083;28;20027;-76
2022/05/05 12:05:53;;;;;;;4.93;3.42;;;;;;;;;;5052819;28;20037;-76
2022/05/05 12:08:19;;;;;;;5.05;3.47;;;;;;;;;;5052935;28;20021;-77
2022/05/05 12:10:45;;;;;;;9.63;3.83;;;;;;;;;;5052639;28;20071;-76
2022/05/05 12:13:10;;;;;;;7.75;3.90;;;;;;;;;;5052171;28;20041;-76
2022/05/05 12:15:37;;;;;;;12.43;3.95;;;;;;;;;;5052842;28;20029;-76
2022/05/05 12:18:03;;;;;;;8.63;3.60;;;;;;;;;;5052652;28;20029;-77
2022/05/05 12:20:29;;;;;;;6.97;3.50;;;;;;;;;;5051253;28;20017;-76
2022/05/05 12:22:57;;;;;;;7.28;3.83;;;;;;;;;;5052526;28;20070;-77
2022/05/05 12:25:24;;;;;;;7.57;3.70;;;;;;;;;;5051099;28;20401;-76
2022/05/05 12:27:57;;;;;;;5.72;3.55;;;;;;;;;;5052655;28;20059;-76
2022/05/05 12:30:32;;;;;;;6.00;4.20;;;;;;;;;;5052878;28;20027;-76
2022/05/05 12:32:57;;;;;;;7.95;4.05;;;;;;;;;;5052772;28;20072;-78
2022/05/05 12:35:31;;;;;;;8.90;3.63;;;;;;;;;;5052659;28;20029;-77
2022/05/05 12:37:58;;;;;;;10.23;3.67;;;;;;;;;;5053068;28;20349;-77
2022/05/05 12:40:23;;;;;;;7.03;3.35;;;;;;;;;;5052325;28;20028;-77
2022/05/05 12:42:48;;;;;;;6.22;3.08;;;;;;;;;;5055552;28;20025;-78
2022/05/05 12:45:16;;;;;;;6.32;3.65;;;;;;;;;;5056465;28;20064;-76
2022/05/05 12:47:45;;;;;;;4.97;3.80;;;;;;;;;;5056019;28;20025;-77
2022/05/05 12:50:43;;;;;;;8.27;3.70;;;;;;;;;;5055963;28;20055;-77
2022/05/05 13:01:24;;;;;;;5.22;3.30;;;;;;;;;;5056105;28;20106;-76
2022/05/05 13:03:51;;;;;;;7.28;3.45;;;;;;;;;;5054422;28;20482;-76
2022/05/05 13:06:16;;;;;;;3.50;3.03;;;;;;;;;;5055881;28;20135;-76
2022/05/05 13:08:41;;;;;;;5.70;3.38;;;;;;;;;;5054409;28;20029;-76
2022/05/05 13:11:06;;;;;;;6.00;3.20;;;;;;;;;;5055551;28;20070;-75
2022/05/05 13:13:32;;;;;;;6.90;4.00;;;;;;;;;;5055358;28;20294;-76
2022/05/05 13:15:57;;;;;;;4.97;3.40;;;;;;;;;;5055474;28;20250;-76
2022/05/05 13:18:22;;;;;;;6.75;3.35;;;;;;;;;;5055509;28;20060;-76
2022/05/05 13:20:48;;;;;;;10.30;3.33;;;;;;;;;;5054381;28;20029;-76
2022/05/05 13:23:13;;;;;;;6.07;3.37;;;;;;;;;;5055521;28;20028;-76
2022/05/05 13:25:38;;;;;;;9.23;3.57;;;;;;;;;;5055244;28;20262;-76
2022/05/05 13:28:04;;;;;;;6.07;3.60;;;;;;;;;;5055548;28;20269;-76
2022/05/05 13:30:29;;;;;;;6.95;3.75;;;;;;;;;;5055410;28;20262;-76
2022/05/05 13:32:54;;;;;;;5.43;3.63;;;;;;;;;;5054982;28;20474;-75
2022/05/05 13:35:19;;;;;;;8.80;3.45;;;;;;;;;;5055102;28;20108;-76
2022/05/05 13:37:46;;;;;;;7.67;3.80;;;;;;;;;;5055341;28;20393;-77
2022/05/05 13:40:11;;;;;;;4.40;3.20;;;;;;;;;;5055207;28;20731;-76
2022/05/05 13:42:36;;;;;;;6.57;3.72;;;;;;;;;;5055006;28;20028;-76
2022/05/05 13:45:02;;;;;;;6.00;4.10;;;;;;;;;;5053495;28;20115;-76
2022/05/05 13:47:27;;;;;;;6.07;3.80;;;;;;;;;;5055030;28;20025;-76
2022/05/05 13:49:53;;;;;;;5.70;3.67;;;;;;;;;;5054708;28;20075;-77
2022/05/05 13:52:18;;;;;;;7.15;4.00;;;;;;;;;;5054417;28;20290;-76
2022/05/05 13:54:45;;;;;;;6.70;3.87;;;;;;;;;;5055035;28;20056;-76
2022/05/05 13:57:10;;;;;;;11.68;4.10;;;;;;;;;;5053441;28;20771;-76
2022/05/05 13:59:37;;;;;;;7.75;3.92;;;;;;;;;;5053473;28;20033;-76
2022/05/05 14:02:03;;;;;;;7.72;4.25;;;;;;;;;;5054940;28;20471;-76
2022/05/05 14:04:29;;;;;;;6.45;4.10;;;;;;;;;;5054614;28;20024;-76
2022/05/05 14:06:56;;;;;;;6.22;3.92;;;;;;;;;;5053488;28;20025;-77
2022/05/05 14:12:12;;;;;;;;;;;;;;;;;;5054898;28;20120;-77
2022/05/05 14:14:38;;;;;;;7.57;4.03;;;;;;;;;;5054772;28;19918;-77
2022/05/05 14:17:04;;;;;;;10.98;4.03;;;;;;;;;;5054912;28;20033;-77
2022/05/05 14:19:33;;;;;;;7.60;3.72;;;;;;;;;;5054617;28;20032;-76
2022/05/05 14:22:00;;;;;;;7.05;4.50;;;;;;;;;;5053115;28;20048;-76
2022/05/05 14:24:28;;;;;;;10.55;4.72;;;;;;;;;;5053085;28;20108;-77
2022/05/05 14:26:55;;;;;;;7.13;4.82;;;;;;;;;;5054295;28;20451;-77
2022/05/05 14:29:20;;;;;;;8.40;4.50;;;;;;;;;;5054170;28;20025;-78
2022/05/05 14:31:47;;;;;;;8.95;4.40;;;;;;;;;;5052942;28;20037;-76
2022/05/05 14:34:14;;;;;;;8.75;4.75;;;;;;;;;;5054181;28;20031;-77
2022/05/05 14:36:40;;;;;;;8.02;4.63;;;;;;;;;;5052826;28;20402;-76
2022/05/05 14:39:05;;;;;;;8.60;4.88;;;;;;;;;;5054039;28;20035;-77
2022/05/05 14:41:31;;;;;;;10.90;4.97;;;;;;;;;;5053818;28;20055;-77
2022/05/05 14:43:56;;;;;;;7.20;4.78;;;;;;;;;;5053922;28;20021;-77
2022/05/05 14:46:22;;;;;;;8.77;3.83;;;;;;;;;;5054571;28;20075;-78
2022/05/05 14:48:49;;;;;;;7.78;4.57;;;;;;;;;;5053089;28;20250;-77
2022/05/05 14:51:14;;;;;;;6.30;4.32;;;;;;;;;;5054530;28;20025;-77
2022/05/05 14:53:39;;;;;;;7.82;4.75;;;;;;;;;;5052796;28;20021;-77
2022/05/05 14:56:04;;;;;;;8.60;4.93;;;;;;;;;;5053524;28;20047;-76
2022/05/05 14:58:30;;;;;;;8.68;5.53;;;;;;;;;;5053520;28;20262;-76
2022/05/05 15:00:56;;;;;;;7.97;4.35;;;;;;;;;;5053257;28;20393;-76
2022/05/05 15:03:21;;;;;;;7.20;4.20;;;;;;;;;;5053382;28;20592;-76
2022/05/05 15:05:46;;;;;;;7.50;4.80;;;;;;;;;;5053373;28;20032;-76
2022/05/05 15:08:11;;;;;;;9.40;5.00;;;;;;;;;;5053355;28;20555;-77
2022/05/05 15:10:37;;;;;;;9.82;4.60;;;;;;;;;;5053731;28;20036;-76
2022/05/05 15:13:02;;;;;;;6.63;4.50;;;;;;;;;;5054204;28;20114;-77
2022/05/05 15:15:28;;;;;;;5.72;3.97;;;;;;;;;;5053595;28;20265;-77
2022/05/05 15:17:53;;;;;;;7.80;4.80;;;;;;;;;;5053786;28;20021;-78
2022/05/05 15:20:18;;;;;;;6.40;4.38;;;;;;;;;;5054124;28;20402;-77
2022/05/05 15:22:43;;;;;;;8.53;4.93;;;;;;;;;;5053881;28;20020;-77
2022/05/05 15:25:11;;;;;;;10.00;4.97;;;;;;;;;;5052358;28;20270;-77
2022/05/05 15:27:38;;;;;;;7.95;4.82;;;;;;;;;;5052689;28;20686;-77
2022/05/05 15:30:05;;;;;;;7.38;4.63;;;;;;;;;;5052045;28;20032;-75
2022/05/05 15:32:30;;;;;;;7.57;4.32;;;;;;;;;;5053585;28;20028;-76